Chita-Kadala Airport
UIAA : now visible

Airfield :











YOU CAN JOIN US ON...

 
LOGIN :

Register | Disclaimer

   EN    FR    IT 

 









Legend :    VFR   Marginal VFR   IFR   Intensive IFR   Very Intensive IFR
Visi :
Ceiling :
>= 8 km
>= 3000ft
5 to 8 km
1000 to 3000 ft
1500m to 5 km
500 to 1000 ft
800 to 1500m
200 to 500 ft
< 800m
< 200 ft
Symbols :   Thunderstorms  Fog  Heavy snow  Heavy precipitations  Wind > 20 kt






- Airport Elevation : 2272 ft
- IATA code : HTA


UIAA - Chita-Kadala

CURRENT METAR :
  • 231830Z AUTO VRB01MPS 9999 NCD 04/02 Q1019 RMK QFE705/0941

EXPIRED METARs :
  • 231800Z AUTO 00000MPS 9999 NCD 04/02 Q1019 RMK QFE705/0941
  • 231730Z AUTO VRB01MPS 9999 NCD 04/03 Q1019 RMK QFE705/0941
  • 231700Z AUTO 29002MPS 9999 NCD 05/03 Q1019 RMK QFE705/0941
  • 231630Z AUTO 33002MPS 9999 NCD 06/04 Q1019 RMK QFE705/0941
  • 231600Z AUTO 29002MPS 9999 NCD 05/04 Q1019 RMK QFE706/0941

TAF TAF UIAA
Valid from the 23 at 18:00 until the 24 at 18:00 UTC


231700Z 2318/2418 34003MPS 9999 NSC
TEMPO 2320/2324 0500 FZFG VV002
TEMPO 2406/2418 09005MPS
UIAA FIR / Asia



MET'MAP, your aeronautical weather chart ! - Copyright ORBIFLY December 2007 - Disclaimer

ORBIFLY MET'MAP TEAM :

Programming & Development : Alexandra Zaïnal
Concept & original design : Baudouin d'Aumeries
Assistance for programming : Marc-Olivier Méhu
Technical & hardware support : Manuel Goepfert

Contact : metmap@orbifly.com




SOURCES & CREDITS :

   NOAA       Earth
Advisory